LFBI 211130Z AUTO 03011KT 010V070 9999 BKN015/// 04/00 Q1037 NOSIG

ElémentsDécodage
LFBI Station météo située sur l'aérodrome de POITIERS Biard
211130Z émis le 21 du mois à 11h30 UTC
AUTO Bulletin édité par un automate
03011KT vent du 030°, 11 noeuds
010V070 vent de direction variable entre 010° et 070°
9999 visibilité horizontale supérieure à 10 Km
BKN015/// nuages morcelés (5/8 à 7/8) à 1500 pieds
 type de nuage non observable
04/00 température 04°C, point de rosée 00°C
 soit une humidité relative de 75%
Q1037 la pression au niveau de la mer (QNH) est de 1037 hPa
NOSIG Pas de changement significatif prévu au cours des deux heures suivant l'heure de l'observation